sensor_id;sensor_type;location;lat;lon;timestamp;P1;durP1;ratioP1;P2;durP2;ratioP2
77046;SDS011;65977;56.380;44.022;2023-03-11T00:00:41;11.90;;;7.78;;
77046;SDS011;65977;56.380;44.022;2023-03-11T00:03:14;10.18;;;6.47;;
77046;SDS011;65977;56.380;44.022;2023-03-11T00:05:43;14.65;;;6.38;;
77046;SDS011;65977;56.380;44.022;2023-03-11T00:08:12;12.70;;;6.78;;
77046;SDS011;65977;56.380;44.022;2023-03-11T00:10:43;15.02;;;7.93;;
77046;SDS011;65977;56.380;44.022;2023-03-11T00:13:12;10.63;;;6.30;;
77046;SDS011;65977;56.380;44.022;2023-03-11T00:15:41;11.18;;;6.47;;
77046;SDS011;65977;56.380;44.022;2023-03-11T00:18:10;9.98;;;5.45;;
77046;SDS011;65977;56.380;44.022;2023-03-11T00:20:41;12.38;;;6.72;;
77046;SDS011;65977;56.380;44.022;2023-03-11T00:23:12;12.02;;;7.18;;
77046;SDS011;65977;56.380;44.022;2023-03-11T00:25:41;8.85;;;6.22;;
77046;SDS011;65977;56.380;44.022;2023-03-11T00:28:09;11.48;;;6.50;;
77046;SDS011;65977;56.380;44.022;2023-03-11T00:30:38;13.40;;;7.35;;
77046;SDS011;65977;56.380;44.022;2023-03-11T00:33:10;17.75;;;7.43;;
77046;SDS011;65977;56.380;44.022;2023-03-11T00:35:39;13.63;;;7.70;;
77046;SDS011;65977;56.380;44.022;2023-03-11T00:38:07;13.43;;;6.57;;
77046;SDS011;65977;56.380;44.022;2023-03-11T00:40:42;12.38;;;7.13;;
77046;SDS011;65977;56.380;44.022;2023-03-11T00:43:10;12.43;;;7.47;;
77046;SDS011;65977;56.380;44.022;2023-03-11T00:45:37;14.93;;;7.75;;
77046;SDS011;65977;56.380;44.022;2023-03-11T00:48:06;12.10;;;6.05;;
77046;SDS011;65977;56.380;44.022;2023-03-11T00:50:34;12.90;;;6.78;;
77046;SDS011;65977;56.380;44.022;2023-03-11T00:53:03;14.38;;;7.10;;
77046;SDS011;65977;56.380;44.022;2023-03-11T00:55:32;14.45;;;6.35;;
77046;SDS011;65977;56.380;44.022;2023-03-11T00:58:01;13.02;;;6.10;;
77046;SDS011;65977;56.380;44.022;2023-03-11T01:00:33;13.18;;;6.88;;
77046;SDS011;65977;56.380;44.022;2023-03-11T01:03:00;13.13;;;7.10;;
77046;SDS011;65977;56.380;44.022;2023-03-11T01:05:28;11.63;;;6.40;;
77046;SDS011;65977;56.380;44.022;2023-03-11T01:07:57;11.63;;;7.18;;
77046;SDS011;65977;56.380;44.022;2023-03-11T01:10:25;15.43;;;6.70;;
77046;SDS011;65977;56.380;44.022;2023-03-11T01:12:53;12.25;;;6.85;;
77046;SDS011;65977;56.380;44.022;2023-03-11T01:15:26;8.88;;;5.95;;
77046;SDS011;65977;56.380;44.022;2023-03-11T01:17:55;13.80;;;7.60;;
77046;SDS011;65977;56.380;44.022;2023-03-11T01:20:22;11.77;;;7.30;;
77046;SDS011;65977;56.380;44.022;2023-03-11T01:22:49;12.10;;;7.00;;
77046;SDS011;65977;56.380;44.022;2023-03-11T01:25:17;14.95;;;7.45;;
77046;SDS011;65977;56.380;44.022;2023-03-11T01:27:46;13.30;;;6.93;;
77046;SDS011;65977;56.380;44.022;2023-03-11T01:30:16;14.10;;;8.00;;
77046;SDS011;65977;56.380;44.022;2023-03-11T01:32:48;12.82;;;6.82;;
77046;SDS011;65977;56.380;44.022;2023-03-11T01:35:17;13.05;;;7.65;;
77046;SDS011;65977;56.380;44.022;2023-03-11T01:37:46;16.65;;;8.43;;
77046;SDS011;65977;56.380;44.022;2023-03-11T01:40:15;14.40;;;7.35;;
77046;SDS011;65977;56.380;44.022;2023-03-11T01:42:44;12.88;;;6.97;;
77046;SDS011;65977;56.380;44.022;2023-03-11T01:47:50;12.60;;;7.68;;
77046;SDS011;65977;56.380;44.022;2023-03-11T01:50:17;14.45;;;6.88;;
77046;SDS011;65977;56.380;44.022;2023-03-11T01:52:45;14.18;;;7.45;;
77046;SDS011;65977;56.380;44.022;2023-03-11T01:55:14;15.02;;;8.05;;
77046;SDS011;65977;56.380;44.022;2023-03-11T01:57:44;10.95;;;7.32;;
77046;SDS011;65977;56.380;44.022;2023-03-11T02:00:13;11.95;;;7.28;;
77046;SDS011;65977;56.380;44.022;2023-03-11T02:02:50;10.73;;;7.65;;
77046;SDS011;65977;56.380;44.022;2023-03-11T02:05:22;13.10;;;8.00;;
77046;SDS011;65977;56.380;44.022;2023-03-11T02:07:50;14.77;;;7.60;;
77046;SDS011;65977;56.380;44.022;2023-03-11T02:10:20;12.68;;;7.10;;
77046;SDS011;65977;56.380;44.022;2023-03-11T02:12:47;11.45;;;7.45;;
77046;SDS011;65977;56.380;44.022;2023-03-11T02:15:16;12.75;;;6.45;;
77046;SDS011;65977;56.380;44.022;2023-03-11T02:17:43;12.35;;;7.10;;
77046;SDS011;65977;56.380;44.022;2023-03-11T02:22:55;13.00;;;7.72;;
77046;SDS011;65977;56.380;44.022;2023-03-11T02:25:38;15.10;;;8.10;;
77046;SDS011;65977;56.380;44.022;2023-03-11T02:28:11;11.57;;;7.88;;
77046;SDS011;65977;56.380;44.022;2023-03-11T02:30:41;14.43;;;7.88;;
77046;SDS011;65977;56.380;44.022;2023-03-11T02:33:09;14.32;;;8.13;;
77046;SDS011;65977;56.380;44.022;2023-03-11T02:35:39;16.17;;;7.90;;
77046;SDS011;65977;56.380;44.022;2023-03-11T02:38:06;14.88;;;8.13;;
77046;SDS011;65977;56.380;44.022;2023-03-11T02:43:16;12.40;;;7.78;;
77046;SDS011;65977;56.380;44.022;2023-03-11T02:45:46;16.10;;;8.80;;
77046;SDS011;65977;56.380;44.022;2023-03-11T02:48:15;16.75;;;8.65;;
77046;SDS011;65977;56.380;44.022;2023-03-11T02:50:43;14.70;;;8.50;;
77046;SDS011;65977;56.380;44.022;2023-03-11T02:53:12;14.27;;;7.50;;
77046;SDS011;65977;56.380;44.022;2023-03-11T02:55:39;17.08;;;8.55;;
77046;SDS011;65977;56.380;44.022;2023-03-11T02:58:07;15.15;;;8.50;;
77046;SDS011;65977;56.380;44.022;2023-03-11T03:00:34;14.35;;;7.45;;
77046;SDS011;65977;56.380;44.022;2023-03-11T03:03:01;14.45;;;8.35;;
77046;SDS011;65977;56.380;44.022;2023-03-11T03:05:28;18.60;;;8.60;;
77046;SDS011;65977;56.380;44.022;2023-03-11T03:07:55;15.88;;;8.07;;
77046;SDS011;65977;56.380;44.022;2023-03-11T03:10:22;15.50;;;8.25;;
77046;SDS011;65977;56.380;44.022;2023-03-11T03:12:50;16.58;;;8.68;;
77046;SDS011;65977;56.380;44.022;2023-03-11T03:15:17;17.58;;;9.70;;
77046;SDS011;65977;56.380;44.022;2023-03-11T03:17:44;17.10;;;9.35;;
77046;SDS011;65977;56.380;44.022;2023-03-11T03:20:12;14.38;;;8.70;;
77046;SDS011;65977;56.380;44.022;2023-03-11T03:22:40;17.10;;;9.23;;
77046;SDS011;65977;56.380;44.022;2023-03-11T03:25:08;16.08;;;8.75;;
77046;SDS011;65977;56.380;44.022;2023-03-11T03:27:36;13.27;;;7.30;;
77046;SDS011;65977;56.380;44.022;2023-03-11T03:30:04;12.40;;;7.00;;
77046;SDS011;65977;56.380;44.022;2023-03-11T03:32:32;16.45;;;8.02;;
77046;SDS011;65977;56.380;44.022;2023-03-11T03:35:00;11.98;;;7.25;;
77046;SDS011;65977;56.380;44.022;2023-03-11T03:37:30;13.60;;;7.57;;
77046;SDS011;65977;56.380;44.022;2023-03-11T03:39:59;12.13;;;7.80;;
77046;SDS011;65977;56.380;44.022;2023-03-11T03:42:26;17.50;;;10.55;;
77046;SDS011;65977;56.380;44.022;2023-03-11T03:44:53;15.10;;;8.15;;
77046;SDS011;65977;56.380;44.022;2023-03-11T03:47:20;13.05;;;7.93;;
77046;SDS011;65977;56.380;44.022;2023-03-11T03:49:47;16.38;;;9.20;;
77046;SDS011;65977;56.380;44.022;2023-03-11T03:52:14;13.30;;;9.02;;
77046;SDS011;65977;56.380;44.022;2023-03-11T03:54:42;14.15;;;9.15;;
77046;SDS011;65977;56.380;44.022;2023-03-11T03:57:09;16.45;;;9.65;;
77046;SDS011;65977;56.380;44.022;2023-03-11T03:59:36;17.92;;;9.07;;
77046;SDS011;65977;56.380;44.022;2023-03-11T04:02:03;13.65;;;7.97;;
77046;SDS011;65977;56.380;44.022;2023-03-11T04:04:30;18.83;;;8.98;;
77046;SDS011;65977;56.380;44.022;2023-03-11T04:06:58;14.32;;;8.43;;
77046;SDS011;65977;56.380;44.022;2023-03-11T04:09:25;13.27;;;7.88;;
77046;SDS011;65977;56.380;44.022;2023-03-11T04:11:52;14.55;;;9.15;;
77046;SDS011;65977;56.380;44.022;2023-03-11T04:14:19;12.05;;;7.65;;
77046;SDS011;65977;56.380;44.022;2023-03-11T04:16:46;14.02;;;8.48;;
77046;SDS011;65977;56.380;44.022;2023-03-11T04:19:14;11.60;;;7.68;;
77046;SDS011;65977;56.380;44.022;2023-03-11T04:21:41;10.32;;;7.10;;
77046;SDS011;65977;56.380;44.022;2023-03-11T04:24:08;11.88;;;7.38;;
77046;SDS011;65977;56.380;44.022;2023-03-11T04:26:35;12.02;;;7.28;;
77046;SDS011;65977;56.380;44.022;2023-03-11T04:29:02;10.52;;;7.63;;
77046;SDS011;65977;56.380;44.022;2023-03-11T04:31:29;12.00;;;7.88;;
77046;SDS011;65977;56.380;44.022;2023-03-11T04:33:56;13.00;;;8.00;;
77046;SDS011;65977;56.380;44.022;2023-03-11T04:36:23;14.15;;;8.32;;
77046;SDS011;65977;56.380;44.022;2023-03-11T04:38:54;11.93;;;8.95;;
77046;SDS011;65977;56.380;44.022;2023-03-11T04:41:22;10.48;;;7.63;;
77046;SDS011;65977;56.380;44.022;2023-03-11T04:43:49;12.20;;;8.02;;
77046;SDS011;65977;56.380;44.022;2023-03-11T04:46:16;10.20;;;7.80;;
77046;SDS011;65977;56.380;44.022;2023-03-11T04:48:43;12.43;;;8.30;;
77046;SDS011;65977;56.380;44.022;2023-03-11T04:51:10;15.00;;;9.43;;
77046;SDS011;65977;56.380;44.022;2023-03-11T04:53:38;11.43;;;7.90;;
77046;SDS011;65977;56.380;44.022;2023-03-11T04:56:05;11.10;;;7.80;;
77046;SDS011;65977;56.380;44.022;2023-03-11T04:58:32;12.95;;;8.88;;
77046;SDS011;65977;56.380;44.022;2023-03-11T05:00:59;12.40;;;8.50;;
77046;SDS011;65977;56.380;44.022;2023-03-11T05:03:26;10.50;;;8.13;;
77046;SDS011;65977;56.380;44.022;2023-03-11T05:05:53;11.95;;;8.43;;
77046;SDS011;65977;56.380;44.022;2023-03-11T05:08:22;12.43;;;8.55;;
77046;SDS011;65977;56.380;44.022;2023-03-11T05:10:50;11.02;;;8.52;;
77046;SDS011;65977;56.380;44.022;2023-03-11T05:13:18;13.73;;;9.77;;
77046;SDS011;65977;56.380;44.022;2023-03-11T05:15:46;11.18;;;8.38;;
77046;SDS011;65977;56.380;44.022;2023-03-11T05:18:14;11.40;;;8.65;;
77046;SDS011;65977;56.380;44.022;2023-03-11T05:20:41;11.80;;;8.63;;
77046;SDS011;65977;56.380;44.022;2023-03-11T05:23:08;14.98;;;10.35;;
77046;SDS011;65977;56.380;44.022;2023-03-11T05:25:35;13.10;;;9.00;;
77046;SDS011;65977;56.380;44.022;2023-03-11T05:28:02;11.70;;;8.63;;
77046;SDS011;65977;56.380;44.022;2023-03-11T05:30:30;11.35;;;8.15;;
77046;SDS011;65977;56.380;44.022;2023-03-11T05:32:57;12.77;;;9.07;;
77046;SDS011;65977;56.380;44.022;2023-03-11T05:35:24;10.25;;;8.63;;
77046;SDS011;65977;56.380;44.022;2023-03-11T05:37:51;11.88;;;8.13;;
77046;SDS011;65977;56.380;44.022;2023-03-11T05:40:20;11.48;;;8.75;;
77046;SDS011;65977;56.380;44.022;2023-03-11T05:42:47;10.10;;;7.55;;
77046;SDS011;65977;56.380;44.022;2023-03-11T05:45:14;11.05;;;7.85;;
77046;SDS011;65977;56.380;44.022;2023-03-11T05:47:41;11.80;;;8.25;;
77046;SDS011;65977;56.380;44.022;2023-03-11T05:50:09;9.48;;;7.40;;
77046;SDS011;65977;56.380;44.022;2023-03-11T05:52:37;13.95;;;7.78;;
77046;SDS011;65977;56.380;44.022;2023-03-11T05:55:04;10.27;;;7.57;;
77046;SDS011;65977;56.380;44.022;2023-03-11T05:57:32;7.53;;;6.28;;
77046;SDS011;65977;56.380;44.022;2023-03-11T05:59:59;7.82;;;6.43;;
77046;SDS011;65977;56.380;44.022;2023-03-11T06:02:26;7.78;;;6.32;;
77046;SDS011;65977;56.380;44.022;2023-03-11T06:04:53;8.80;;;6.82;;
77046;SDS011;65977;56.380;44.022;2023-03-11T06:07:20;10.20;;;6.22;;
77046;SDS011;65977;56.380;44.022;2023-03-11T06:09:48;19.05;;;6.85;;
77046;SDS011;65977;56.380;44.022;2023-03-11T06:12:16;30.90;;;7.68;;
77046;SDS011;65977;56.380;44.022;2023-03-11T06:14:43;17.95;;;7.80;;
77046;SDS011;65977;56.380;44.022;2023-03-11T06:17:10;10.88;;;6.18;;
77046;SDS011;65977;56.380;44.022;2023-03-11T06:19:37;14.18;;;7.55;;
77046;SDS011;65977;56.380;44.022;2023-03-11T06:22:04;8.07;;;6.70;;
77046;SDS011;65977;56.380;44.022;2023-03-11T06:24:31;9.27;;;8.13;;
77046;SDS011;65977;56.380;44.022;2023-03-11T06:26:58;11.23;;;8.48;;
77046;SDS011;65977;56.380;44.022;2023-03-11T06:29:25;11.20;;;9.10;;
77046;SDS011;65977;56.380;44.022;2023-03-11T06:31:54;10.88;;;8.07;;
77046;SDS011;65977;56.380;44.022;2023-03-11T06:34:21;9.88;;;7.97;;
77046;SDS011;65977;56.380;44.022;2023-03-11T06:36:49;7.35;;;6.18;;
77046;SDS011;65977;56.380;44.022;2023-03-11T06:39:16;9.20;;;7.25;;
77046;SDS011;65977;56.380;44.022;2023-03-11T06:41:43;6.70;;;5.28;;
77046;SDS011;65977;56.380;44.022;2023-03-11T06:44:10;6.95;;;5.65;;
77046;SDS011;65977;56.380;44.022;2023-03-11T06:46:37;6.75;;;4.93;;
77046;SDS011;65977;56.380;44.022;2023-03-11T06:49:05;7.53;;;6.70;;
77046;SDS011;65977;56.380;44.022;2023-03-11T06:51:33;7.57;;;5.57;;
77046;SDS011;65977;56.380;44.022;2023-03-11T06:54:00;9.07;;;7.55;;
77046;SDS011;65977;56.380;44.022;2023-03-11T06:56:27;8.70;;;7.78;;
77046;SDS011;65977;56.380;44.022;2023-03-11T06:58:54;10.35;;;8.95;;
77046;SDS011;65977;56.380;44.022;2023-03-11T07:01:22;10.68;;;9.30;;
77046;SDS011;65977;56.380;44.022;2023-03-11T07:03:51;11.85;;;9.93;;
77046;SDS011;65977;56.380;44.022;2023-03-11T07:06:19;14.38;;;11.45;;
77046;SDS011;65977;56.380;44.022;2023-03-11T07:11:16;16.40;;;12.93;;
77046;SDS011;65977;56.380;44.022;2023-03-11T07:13:48;18.80;;;13.65;;
77046;SDS011;65977;56.380;44.022;2023-03-11T07:16:20;19.73;;;15.20;;
77046;SDS011;65977;56.380;44.022;2023-03-11T07:18:49;22.20;;;17.42;;
77046;SDS011;65977;56.380;44.022;2023-03-11T07:21:19;23.70;;;18.33;;
77046;SDS011;65977;56.380;44.022;2023-03-11T07:28:49;20.98;;;16.35;;
77046;SDS011;65977;56.380;44.022;2023-03-11T07:31:19;19.70;;;16.98;;
77046;SDS011;65977;56.380;44.022;2023-03-11T07:33:49;21.95;;;15.48;;
77046;SDS011;65977;56.380;44.022;2023-03-11T07:36:17;21.38;;;14.63;;
77046;SDS011;65977;56.380;44.022;2023-03-11T07:38:47;21.50;;;16.00;;
77046;SDS011;65977;56.380;44.022;2023-03-11T07:41:15;23.17;;;17.60;;
77046;SDS011;65977;56.380;44.022;2023-03-11T07:43:42;22.98;;;17.05;;
77046;SDS011;65977;56.380;44.022;2023-03-11T07:46:11;22.48;;;17.10;;
77046;SDS011;65977;56.380;44.022;2023-03-11T07:48:43;22.67;;;16.80;;
77046;SDS011;65977;56.380;44.022;2023-03-11T07:51:12;22.30;;;17.55;;
77046;SDS011;65977;56.380;44.022;2023-03-11T07:53:41;23.75;;;18.70;;
77046;SDS011;65977;56.380;44.022;2023-03-11T07:56:09;22.25;;;18.30;;
77046;SDS011;65977;56.380;44.022;2023-03-11T07:58:38;22.60;;;17.63;;
77046;SDS011;65977;56.380;44.022;2023-03-11T08:01:06;21.13;;;16.95;;
77046;SDS011;65977;56.380;44.022;2023-03-11T08:03:41;21.23;;;16.75;;
77046;SDS011;65977;56.380;44.022;2023-03-11T08:06:10;20.90;;;17.02;;
77046;SDS011;65977;56.380;44.022;2023-03-11T08:08:42;23.45;;;17.83;;
77046;SDS011;65977;56.380;44.022;2023-03-11T08:11:10;21.35;;;19.10;;
77046;SDS011;65977;56.380;44.022;2023-03-11T08:13:39;23.67;;;19.20;;
77046;SDS011;65977;56.380;44.022;2023-03-11T08:16:07;25.50;;;19.23;;
77046;SDS011;65977;56.380;44.022;2023-03-11T08:18:35;20.88;;;16.98;;
77046;SDS011;65977;56.380;44.022;2023-03-11T08:21:03;18.38;;;15.05;;
77046;SDS011;65977;56.380;44.022;2023-03-11T08:23:34;21.08;;;17.33;;
77046;SDS011;65977;56.380;44.022;2023-03-11T08:26:02;20.80;;;17.08;;
77046;SDS011;65977;56.380;44.022;2023-03-11T08:28:31;18.27;;;15.20;;
77046;SDS011;65977;56.380;44.022;2023-03-11T08:30:59;18.38;;;14.98;;
77046;SDS011;65977;56.380;44.022;2023-03-11T08:33:26;19.02;;;12.25;;
77046;SDS011;65977;56.380;44.022;2023-03-11T08:35:53;12.90;;;9.95;;
77046;SDS011;65977;56.380;44.022;2023-03-11T08:38:21;12.43;;;8.20;;
77046;SDS011;65977;56.380;44.022;2023-03-11T08:40:47;13.23;;;8.25;;
77046;SDS011;65977;56.380;44.022;2023-03-11T08:43:15;12.02;;;8.40;;
77046;SDS011;65977;56.380;44.022;2023-03-11T08:45:42;15.52;;;8.35;;
77046;SDS011;65977;56.380;44.022;2023-03-11T08:48:10;11.20;;;7.38;;
77046;SDS011;65977;56.380;44.022;2023-03-11T08:50:41;9.68;;;7.20;;
77046;SDS011;65977;56.380;44.022;2023-03-11T08:53:20;9.32;;;5.82;;
77046;SDS011;65977;56.380;44.022;2023-03-11T08:55:48;8.85;;;5.28;;
77046;SDS011;65977;56.380;44.022;2023-03-11T08:58:17;8.63;;;5.53;;
77046;SDS011;65977;56.380;44.022;2023-03-11T09:00:45;10.10;;;6.85;;
77046;SDS011;65977;56.380;44.022;2023-03-11T09:03:12;8.25;;;5.32;;
77046;SDS011;65977;56.380;44.022;2023-03-11T09:05:39;10.45;;;6.72;;
77046;SDS011;65977;56.380;44.022;2023-03-11T09:08:06;10.70;;;6.47;;
77046;SDS011;65977;56.380;44.022;2023-03-11T09:10:33;8.73;;;5.60;;
77046;SDS011;65977;56.380;44.022;2023-03-11T09:13:00;9.80;;;5.65;;
77046;SDS011;65977;56.380;44.022;2023-03-11T09:15:27;7.57;;;5.07;;
77046;SDS011;65977;56.380;44.022;2023-03-11T09:17:54;5.63;;;4.05;;
77046;SDS011;65977;56.380;44.022;2023-03-11T09:20:25;6.82;;;4.40;;
77046;SDS011;65977;56.380;44.022;2023-03-11T09:22:52;6.60;;;5.50;;
77046;SDS011;65977;56.380;44.022;2023-03-11T09:25:19;8.82;;;6.35;;
77046;SDS011;65977;56.380;44.022;2023-03-11T09:27:46;7.13;;;5.93;;
77046;SDS011;65977;56.380;44.022;2023-03-11T09:30:13;7.88;;;6.20;;
77046;SDS011;65977;56.380;44.022;2023-03-11T09:32:40;8.55;;;6.38;;
77046;SDS011;65977;56.380;44.022;2023-03-11T09:35:07;8.20;;;6.65;;
77046;SDS011;65977;56.380;44.022;2023-03-11T09:37:34;7.60;;;6.10;;
77046;SDS011;65977;56.380;44.022;2023-03-11T09:40:02;8.20;;;6.70;;
77046;SDS011;65977;56.380;44.022;2023-03-11T09:42:32;10.35;;;5.93;;
77046;SDS011;65977;56.380;44.022;2023-03-11T09:45:26;9.00;;;6.55;;
77046;SDS011;65977;56.380;44.022;2023-03-11T09:50:52;9.13;;;7.03;;
77046;SDS011;65977;56.380;44.022;2023-03-11T09:56:03;9.88;;;7.35;;
77046;SDS011;65977;56.380;44.022;2023-03-11T10:04:09;9.60;;;7.60;;
77046;SDS011;65977;56.380;44.022;2023-03-11T10:06:43;8.10;;;5.97;;
77046;SDS011;65977;56.380;44.022;2023-03-11T10:17:51;9.68;;;7.22;;
77046;SDS011;65977;56.380;44.022;2023-03-11T10:20:21;12.32;;;8.68;;
77046;SDS011;65977;56.380;44.022;2023-03-11T10:28:21;11.43;;;7.40;;
77046;SDS011;65977;56.380;44.022;2023-03-11T10:30:56;8.38;;;5.82;;
77046;SDS011;65977;56.380;44.022;2023-03-11T10:33:30;8.57;;;6.85;;
77046;SDS011;65977;56.380;44.022;2023-03-11T10:36:20;7.43;;;5.90;;
77046;SDS011;65977;56.380;44.022;2023-03-11T10:38:50;10.93;;;6.85;;
77046;SDS011;65977;56.380;44.022;2023-03-11T10:41:22;8.48;;;6.68;;
77046;SDS011;65977;56.380;44.022;2023-03-11T10:43:51;7.35;;;6.35;;
77046;SDS011;65977;56.380;44.022;2023-03-11T10:46:27;7.20;;;5.95;;
77046;SDS011;65977;56.380;44.022;2023-03-11T10:48:55;9.10;;;7.13;;
77046;SDS011;65977;56.380;44.022;2023-03-11T10:51:33;8.75;;;6.88;;
77046;SDS011;65977;56.380;44.022;2023-03-11T10:54:00;7.43;;;5.60;;
77046;SDS011;65977;56.380;44.022;2023-03-11T10:56:39;7.43;;;5.93;;
77046;SDS011;65977;56.380;44.022;2023-03-11T11:00:07;7.03;;;5.88;;
77046;SDS011;65977;56.380;44.022;2023-03-11T11:02:24;8.48;;;5.78;;
77046;SDS011;65977;56.380;44.022;2023-03-11T11:05:05;9.27;;;6.63;;
77046;SDS011;65977;56.380;44.022;2023-03-11T11:07:47;9.55;;;6.93;;
77046;SDS011;65977;56.380;44.022;2023-03-11T11:15:27;5.10;;;4.00;;
77046;SDS011;65977;56.380;44.022;2023-03-11T11:18:06;3.65;;;3.08;;
77046;SDS011;65977;56.380;44.022;2023-03-11T11:23:36;4.05;;;2.80;;
77046;SDS011;65977;56.380;44.022;2023-03-11T11:26:20;4.75;;;3.15;;
77046;SDS011;65977;56.380;44.022;2023-03-11T11:31:39;4.75;;;3.22;;
77046;SDS011;65977;56.380;44.022;2023-03-11T11:34:29;4.10;;;3.20;;
77046;SDS011;65977;56.380;44.022;2023-03-11T11:37:00;4.40;;;3.25;;
77046;SDS011;65977;56.380;44.022;2023-03-11T11:39:31;4.72;;;3.47;;
77046;SDS011;65977;56.380;44.022;2023-03-11T11:42:10;5.13;;;3.72;;
77046;SDS011;65977;56.380;44.022;2023-03-11T11:44:40;5.25;;;3.42;;
77046;SDS011;65977;56.380;44.022;2023-03-11T11:47:13;4.30;;;3.33;;
77046;SDS011;65977;56.380;44.022;2023-03-11T11:49:54;5.50;;;3.78;;
77046;SDS011;65977;56.380;44.022;2023-03-11T11:52:45;5.10;;;2.90;;
77046;SDS011;65977;56.380;44.022;2023-03-11T11:57:54;6.75;;;4.65;;
77046;SDS011;65977;56.380;44.022;2023-03-11T12:00:23;8.50;;;4.50;;
77046;SDS011;65977;56.380;44.022;2023-03-11T12:05:58;3.95;;;2.92;;
77046;SDS011;65977;56.380;44.022;2023-03-11T12:11:06;5.95;;;4.00;;
77046;SDS011;65977;56.380;44.022;2023-03-11T12:13:46;7.65;;;3.60;;
77046;SDS011;65977;56.380;44.022;2023-03-11T12:27:20;3.83;;;2.70;;
77046;SDS011;65977;56.380;44.022;2023-03-11T12:29:50;4.28;;;2.70;;
77046;SDS011;65977;56.380;44.022;2023-03-11T12:32:29;8.20;;;5.07;;
77046;SDS011;65977;56.380;44.022;2023-03-11T12:40:45;5.60;;;2.92;;
77046;SDS011;65977;56.380;44.022;2023-03-11T12:51:01;5.82;;;3.75;;
77046;SDS011;65977;56.380;44.022;2023-03-11T12:53:42;8.80;;;5.85;;
77046;SDS011;65977;56.380;44.022;2023-03-11T12:59:01;8.70;;;4.65;;
77046;SDS011;65977;56.380;44.022;2023-03-11T13:10:10;8.60;;;5.18;;
77046;SDS011;65977;56.380;44.022;2023-03-11T13:12:39;8.30;;;3.97;;
77046;SDS011;65977;56.380;44.022;2023-03-11T13:25:39;6.45;;;3.95;;
77046;SDS011;65977;56.380;44.022;2023-03-11T13:37:02;6.95;;;5.03;;
77046;SDS011;65977;56.380;44.022;2023-03-11T13:44:53;6.20;;;4.18;;
77046;SDS011;65977;56.380;44.022;2023-03-11T13:47:25;6.97;;;4.63;;
77046;SDS011;65977;56.380;44.022;2023-03-11T13:50:08;8.85;;;6.03;;
77046;SDS011;65977;56.380;44.022;2023-03-11T13:52:49;10.75;;;6.25;;
77046;SDS011;65977;56.380;44.022;2023-03-11T13:55:20;15.65;;;9.50;;
77046;SDS011;65977;56.380;44.022;2023-03-11T13:57:51;16.95;;;10.43;;
77046;SDS011;65977;56.380;44.022;2023-03-11T14:00:23;12.82;;;7.45;;
77046;SDS011;65977;56.380;44.022;2023-03-11T14:02:56;13.10;;;9.07;;
77046;SDS011;65977;56.380;44.022;2023-03-11T14:05:26;11.68;;;7.38;;
77046;SDS011;65977;56.380;44.022;2023-03-11T14:10:38;7.65;;;4.50;;
77046;SDS011;65977;56.380;44.022;2023-03-11T14:13:15;10.02;;;6.25;;
77046;SDS011;65977;56.380;44.022;2023-03-11T14:15:50;6.80;;;4.53;;
77046;SDS011;65977;56.380;44.022;2023-03-11T14:18:34;12.85;;;8.25;;
77046;SDS011;65977;56.380;44.022;2023-03-11T14:21:10;12.85;;;7.63;;
77046;SDS011;65977;56.380;44.022;2023-03-11T14:23:43;11.00;;;7.07;;
77046;SDS011;65977;56.380;44.022;2023-03-11T14:26:18;11.30;;;6.60;;
77046;SDS011;65977;56.380;44.022;2023-03-11T14:28:49;11.63;;;6.93;;
77046;SDS011;65977;56.380;44.022;2023-03-11T14:31:23;15.38;;;8.60;;
77046;SDS011;65977;56.380;44.022;2023-03-11T14:34:12;23.52;;;11.93;;
77046;SDS011;65977;56.380;44.022;2023-03-11T14:36:41;17.55;;;10.77;;
77046;SDS011;65977;56.380;44.022;2023-03-11T14:39:31;15.18;;;9.05;;
77046;SDS011;65977;56.380;44.022;2023-03-11T14:42:21;10.27;;;6.20;;
77046;SDS011;65977;56.380;44.022;2023-03-11T14:47:34;11.18;;;6.28;;
77046;SDS011;65977;56.380;44.022;2023-03-11T14:50:16;12.70;;;7.22;;
77046;SDS011;65977;56.380;44.022;2023-03-11T14:53:07;13.85;;;8.55;;
77046;SDS011;65977;56.380;44.022;2023-03-11T14:55:38;12.65;;;7.05;;
77046;SDS011;65977;56.380;44.022;2023-03-11T15:03:38;11.32;;;6.97;;
77046;SDS011;65977;56.380;44.022;2023-03-11T15:06:18;9.15;;;5.88;;
77046;SDS011;65977;56.380;44.022;2023-03-11T15:08:59;6.50;;;4.93;;
77046;SDS011;65977;56.380;44.022;2023-03-11T15:11:28;6.38;;;4.00;;
77046;SDS011;65977;56.380;44.022;2023-03-11T15:14:08;15.65;;;8.93;;
77046;SDS011;65977;56.380;44.022;2023-03-11T15:23:05;9.60;;;5.88;;
77046;SDS011;65977;56.380;44.022;2023-03-11T15:25:34;12.73;;;6.95;;
77046;SDS011;65977;56.380;44.022;2023-03-11T15:33:47;14.93;;;7.22;;
77046;SDS011;65977;56.380;44.022;2023-03-11T15:41:46;14.80;;;8.13;;
77046;SDS011;65977;56.380;44.022;2023-03-11T15:44:24;11.75;;;7.22;;
77046;SDS011;65977;56.380;44.022;2023-03-11T15:46:53;12.90;;;7.50;;
77046;SDS011;65977;56.380;44.022;2023-03-11T15:49:21;11.30;;;6.60;;
77046;SDS011;65977;56.380;44.022;2023-03-11T15:51:48;14.23;;;8.73;;
77046;SDS011;65977;56.380;44.022;2023-03-11T15:54:15;14.30;;;8.27;;
77046;SDS011;65977;56.380;44.022;2023-03-11T15:56:42;12.50;;;7.13;;
77046;SDS011;65977;56.380;44.022;2023-03-11T15:59:11;12.55;;;8.20;;
77046;SDS011;65977;56.380;44.022;2023-03-11T16:01:40;12.75;;;7.40;;
77046;SDS011;65977;56.380;44.022;2023-03-11T16:04:12;13.18;;;7.43;;
77046;SDS011;65977;56.380;44.022;2023-03-11T16:06:41;9.00;;;5.80;;
77046;SDS011;65977;56.380;44.022;2023-03-11T16:09:09;9.57;;;6.35;;
77046;SDS011;65977;56.380;44.022;2023-03-11T16:11:37;9.73;;;5.07;;
77046;SDS011;65977;56.380;44.022;2023-03-11T16:14:05;13.43;;;7.78;;
77046;SDS011;65977;56.380;44.022;2023-03-11T16:16:35;11.05;;;6.60;;
77046;SDS011;65977;56.380;44.022;2023-03-11T16:19:02;10.57;;;5.72;;
77046;SDS011;65977;56.380;44.022;2023-03-11T16:21:32;13.98;;;7.75;;
77046;SDS011;65977;56.380;44.022;2023-03-11T16:24:05;13.10;;;8.38;;
77046;SDS011;65977;56.380;44.022;2023-03-11T16:26:33;6.82;;;4.55;;
77046;SDS011;65977;56.380;44.022;2023-03-11T16:29:01;5.15;;;3.17;;
77046;SDS011;65977;56.380;44.022;2023-03-11T16:31:43;5.80;;;2.90;;
77046;SDS011;65977;56.380;44.022;2023-03-11T16:34:11;8.57;;;5.55;;
77046;SDS011;65977;56.380;44.022;2023-03-11T16:36:38;8.95;;;4.57;;
77046;SDS011;65977;56.380;44.022;2023-03-11T16:39:05;10.65;;;6.25;;
77046;SDS011;65977;56.380;44.022;2023-03-11T16:41:42;6.15;;;4.05;;
77046;SDS011;65977;56.380;44.022;2023-03-11T16:44:10;6.72;;;4.22;;
77046;SDS011;65977;56.380;44.022;2023-03-11T16:46:40;6.85;;;4.85;;
77046;SDS011;65977;56.380;44.022;2023-03-11T16:49:10;5.82;;;3.53;;
77046;SDS011;65977;56.380;44.022;2023-03-11T16:51:37;7.20;;;4.82;;
77046;SDS011;65977;56.380;44.022;2023-03-11T16:54:04;8.68;;;5.80;;
77046;SDS011;65977;56.380;44.022;2023-03-11T16:56:33;7.00;;;5.15;;
77046;SDS011;65977;56.380;44.022;2023-03-11T16:59:00;8.23;;;5.78;;
77046;SDS011;65977;56.380;44.022;2023-03-11T17:01:28;9.45;;;5.25;;
77046;SDS011;65977;56.380;44.022;2023-03-11T17:03:57;8.93;;;4.72;;
77046;SDS011;65977;56.380;44.022;2023-03-11T17:06:31;6.30;;;4.72;;
77046;SDS011;65977;56.380;44.022;2023-03-11T17:09:07;8.95;;;5.47;;